Fort Stanton, New Mexico
Current Conditions -  °F | °C
As of 4:55 AM on Thursday 27 Nov 2014 (Local Time) from KSRR Reporting Station
Clear Clear  
Wind Chill: 34°   Ceiling: Unl
Heat Index: 37°   Visibility: 10mi
Dew Point: 18°   Wind: 5mph
Humidity: 45%   Direction: 270°W
Pressure: 30.46"   Gusts: NA
Location:  33.5°N, 105.52°W
Report Text: KSRR 271155Z AUTO 27004KT 10SM CLR 03/M08 A3046 RMK AO2
Loading
Personal Weather Stations






























Interactive Weather Map New forecast layout! Learn more

10-Day Weather Forecast

Advertisements
Track Severe Weather on mobile